sensor_id;sensor_type;location;lat;lon;timestamp;temperature;humidity
80701;DHT22;71609;42.630;23.380;2023-08-31T00:01:49;28.70;45.30
80701;DHT22;71609;42.630;23.380;2023-08-31T00:04:15;28.70;45.30
80701;DHT22;71609;42.630;23.380;2023-08-31T00:06:44;28.70;45.30
80701;DHT22;71609;42.630;23.380;2023-08-31T00:09:13;28.70;45.30
80701;DHT22;71609;42.630;23.380;2023-08-31T00:11:39;28.70;45.40
80701;DHT22;71609;42.630;23.380;2023-08-31T00:14:05;28.70;45.30
80701;DHT22;71609;42.630;23.380;2023-08-31T00:16:31;28.70;45.30
80701;DHT22;71609;42.630;23.380;2023-08-31T00:18:59;28.70;45.30
80701;DHT22;71609;42.630;23.380;2023-08-31T00:21:25;28.70;45.30
80701;DHT22;71609;42.630;23.380;2023-08-31T00:23:50;28.70;45.30
80701;DHT22;71609;42.630;23.380;2023-08-31T00:26:16;28.70;45.30
80701;DHT22;71609;42.630;23.380;2023-08-31T00:28:42;28.60;45.30
80701;DHT22;71609;42.630;23.380;2023-08-31T00:31:09;28.70;45.30
80701;DHT22;71609;42.630;23.380;2023-08-31T00:33:37;28.70;45.40
80701;DHT22;71609;42.630;23.380;2023-08-31T00:36:03;28.70;45.30
80701;DHT22;71609;42.630;23.380;2023-08-31T00:38:30;28.70;45.30
80701;DHT22;71609;42.630;23.380;2023-08-31T00:40:56;28.70;45.40
80701;DHT22;71609;42.630;23.380;2023-08-31T00:43:22;28.60;45.30
80701;DHT22;71609;42.630;23.380;2023-08-31T00:45:50;28.70;45.30
80701;DHT22;71609;42.630;23.380;2023-08-31T00:48:17;28.60;45.30
80701;DHT22;71609;42.630;23.380;2023-08-31T00:50:47;28.60;45.30
80701;DHT22;71609;42.630;23.380;2023-08-31T00:53:14;28.60;45.30
80701;DHT22;71609;42.630;23.380;2023-08-31T00:55:40;28.70;45.30
80701;DHT22;71609;42.630;23.380;2023-08-31T00:58:09;28.60;45.30
80701;DHT22;71609;42.630;23.380;2023-08-31T01:01:11;28.60;45.20
80701;DHT22;71609;42.630;23.380;2023-08-31T01:06:41;28.60;45.40
80701;DHT22;71609;42.630;23.380;2023-08-31T01:12:10;28.60;45.40
80701;DHT22;71609;42.630;23.380;2023-08-31T01:14:58;28.60;45.50
80701;DHT22;71609;42.630;23.380;2023-08-31T01:17:27;28.60;45.40
80701;DHT22;71609;42.630;23.380;2023-08-31T01:19:59;28.60;45.40
80701;DHT22;71609;42.630;23.380;2023-08-31T01:22:55;28.50;45.50
80701;DHT22;71609;42.630;23.380;2023-08-31T01:25:23;28.60;45.40
80701;DHT22;71609;42.630;23.380;2023-08-31T01:27:50;28.60;45.40
80701;DHT22;71609;42.630;23.380;2023-08-31T01:30:17;28.60;45.40
80701;DHT22;71609;42.630;23.380;2023-08-31T01:32:47;28.60;45.40
80701;DHT22;71609;42.630;23.380;2023-08-31T01:35:15;28.60;45.40
80701;DHT22;71609;42.630;23.380;2023-08-31T01:37:57;28.60;45.40
80701;DHT22;71609;42.630;23.380;2023-08-31T01:42:58;28.50;45.30
80701;DHT22;71609;42.630;23.380;2023-08-31T01:45:26;28.60;45.40
80701;DHT22;71609;42.630;23.380;2023-08-31T01:47:52;28.50;45.20
80701;DHT22;71609;42.630;23.380;2023-08-31T01:50:18;28.50;45.30
80701;DHT22;71609;42.630;23.380;2023-08-31T01:52:44;28.60;45.30
80701;DHT22;71609;42.630;23.380;2023-08-31T01:55:10;28.50;45.20
80701;DHT22;71609;42.630;23.380;2023-08-31T01:57:36;28.50;45.20
80701;DHT22;71609;42.630;23.380;2023-08-31T02:00:02;28.60;45.30
80701;DHT22;71609;42.630;23.380;2023-08-31T02:02:29;28.50;45.20
80701;DHT22;71609;42.630;23.380;2023-08-31T02:04:55;28.50;45.20
80701;DHT22;71609;42.630;23.380;2023-08-31T02:07:21;28.50;45.20
80701;DHT22;71609;42.630;23.380;2023-08-31T02:09:46;28.50;45.20
80701;DHT22;71609;42.630;23.380;2023-08-31T02:12:12;28.50;45.20
80701;DHT22;71609;42.630;23.380;2023-08-31T02:14:37;28.50;45.20
80701;DHT22;71609;42.630;23.380;2023-08-31T02:17:04;28.50;45.20
80701;DHT22;71609;42.630;23.380;2023-08-31T02:19:29;28.50;45.10
80701;DHT22;71609;42.630;23.380;2023-08-31T02:21:55;28.50;45.20
80701;DHT22;71609;42.630;23.380;2023-08-31T02:24:21;28.50;45.20
80701;DHT22;71609;42.630;23.380;2023-08-31T02:26:48;28.50;45.20
80701;DHT22;71609;42.630;23.380;2023-08-31T02:29:13;28.50;45.30
80701;DHT22;71609;42.630;23.380;2023-08-31T02:31:39;28.50;45.30
80701;DHT22;71609;42.630;23.380;2023-08-31T02:34:05;28.50;45.20
80701;DHT22;71609;42.630;23.380;2023-08-31T02:36:30;28.50;45.20
80701;DHT22;71609;42.630;23.380;2023-08-31T02:38:56;28.50;45.30
80701;DHT22;71609;42.630;23.380;2023-08-31T02:41:22;28.50;45.20
80701;DHT22;71609;42.630;23.380;2023-08-31T02:43:50;28.50;45.30
80701;DHT22;71609;42.630;23.380;2023-08-31T02:46:17;28.50;45.20
80701;DHT22;71609;42.630;23.380;2023-08-31T02:48:44;28.50;45.20
80701;DHT22;71609;42.630;23.380;2023-08-31T02:51:09;28.50;45.20
80701;DHT22;71609;42.630;23.380;2023-08-31T02:53:35;28.50;45.30
80701;DHT22;71609;42.630;23.380;2023-08-31T02:56:01;28.50;45.30
80701;DHT22;71609;42.630;23.380;2023-08-31T02:58:27;28.50;45.30
80701;DHT22;71609;42.630;23.380;2023-08-31T03:00:53;28.50;45.30
80701;DHT22;71609;42.630;23.380;2023-08-31T03:03:19;28.40;45.30
80701;DHT22;71609;42.630;23.380;2023-08-31T03:05:45;28.40;45.20
80701;DHT22;71609;42.630;23.380;2023-08-31T03:08:11;28.40;45.20
80701;DHT22;71609;42.630;23.380;2023-08-31T03:10:38;28.40;45.20
80701;DHT22;71609;42.630;23.380;2023-08-31T03:13:04;28.40;45.20
80701;DHT22;71609;42.630;23.380;2023-08-31T03:15:32;28.40;45.20
80701;DHT22;71609;42.630;23.380;2023-08-31T03:17:59;28.40;45.30
80701;DHT22;71609;42.630;23.380;2023-08-31T03:20:25;28.40;45.20
80701;DHT22;71609;42.630;23.380;2023-08-31T03:22:50;28.40;45.30
80701;DHT22;71609;42.630;23.380;2023-08-31T03:25:16;28.40;45.20
80701;DHT22;71609;42.630;23.380;2023-08-31T03:27:42;28.40;45.20
80701;DHT22;71609;42.630;23.380;2023-08-31T03:30:08;28.40;45.30
80701;DHT22;71609;42.630;23.380;2023-08-31T03:32:34;28.40;45.30
80701;DHT22;71609;42.630;23.380;2023-08-31T03:35:02;28.40;45.30
80701;DHT22;71609;42.630;23.380;2023-08-31T03:37:29;28.40;45.30
80701;DHT22;71609;42.630;23.380;2023-08-31T03:39:54;28.40;45.20
80701;DHT22;71609;42.630;23.380;2023-08-31T03:42:20;28.40;45.30
80701;DHT22;71609;42.630;23.380;2023-08-31T03:44:46;28.40;45.30
80701;DHT22;71609;42.630;23.380;2023-08-31T03:47:11;28.40;45.20
80701;DHT22;71609;42.630;23.380;2023-08-31T03:49:37;28.40;45.20
80701;DHT22;71609;42.630;23.380;2023-08-31T03:52:03;28.40;45.30
80701;DHT22;71609;42.630;23.380;2023-08-31T03:54:29;28.40;45.20
80701;DHT22;71609;42.630;23.380;2023-08-31T03:56:55;28.40;45.20
80701;DHT22;71609;42.630;23.380;2023-08-31T03:59:20;28.40;45.20
80701;DHT22;71609;42.630;23.380;2023-08-31T04:01:46;28.40;45.30
80701;DHT22;71609;42.630;23.380;2023-08-31T04:04:12;28.40;45.20
80701;DHT22;71609;42.630;23.380;2023-08-31T04:06:37;28.40;45.30
80701;DHT22;71609;42.630;23.380;2023-08-31T04:09:03;28.40;45.20
80701;DHT22;71609;42.630;23.380;2023-08-31T04:11:29;28.40;45.30
80701;DHT22;71609;42.630;23.380;2023-08-31T04:13:55;28.40;45.20
80701;DHT22;71609;42.630;23.380;2023-08-31T04:16:21;28.40;45.20
80701;DHT22;71609;42.630;23.380;2023-08-31T04:18:47;28.40;45.20
80701;DHT22;71609;42.630;23.380;2023-08-31T04:21:17;28.40;45.20
80701;DHT22;71609;42.630;23.380;2023-08-31T04:23:43;28.40;45.10
80701;DHT22;71609;42.630;23.380;2023-08-31T04:26:12;28.40;45.10
80701;DHT22;71609;42.630;23.380;2023-08-31T04:28:39;28.40;45.00
80701;DHT22;71609;42.630;23.380;2023-08-31T04:31:06;28.40;45.10
80701;DHT22;71609;42.630;23.380;2023-08-31T04:33:37;28.40;45.20
80701;DHT22;71609;42.630;23.380;2023-08-31T04:36:06;28.40;46.20
80701;DHT22;71609;42.630;23.380;2023-08-31T04:38:33;28.40;45.20
80701;DHT22;71609;42.630;23.380;2023-08-31T04:40:59;28.40;45.20
80701;DHT22;71609;42.630;23.380;2023-08-31T04:43:25;28.40;45.10
80701;DHT22;71609;42.630;23.380;2023-08-31T04:45:54;28.40;45.00
80701;DHT22;71609;42.630;23.380;2023-08-31T04:48:20;28.40;45.00
80701;DHT22;71609;42.630;23.380;2023-08-31T04:50:46;28.40;44.90
80701;DHT22;71609;42.630;23.380;2023-08-31T04:53:12;28.40;44.90
80701;DHT22;71609;42.630;23.380;2023-08-31T04:55:38;28.40;44.90
80701;DHT22;71609;42.630;23.380;2023-08-31T04:58:04;28.40;44.90
80701;DHT22;71609;42.630;23.380;2023-08-31T05:00:30;28.50;44.90
80701;DHT22;71609;42.630;23.380;2023-08-31T05:02:56;28.50;45.00
80701;DHT22;71609;42.630;23.380;2023-08-31T05:05:22;28.50;44.90
80701;DHT22;71609;42.630;23.380;2023-08-31T05:07:48;28.50;44.60
80701;DHT22;71609;42.630;23.380;2023-08-31T05:10:14;28.60;44.30
80701;DHT22;71609;42.630;23.380;2023-08-31T05:12:39;28.70;44.20
80701;DHT22;71609;42.630;23.380;2023-08-31T05:15:05;28.70;43.90
80701;DHT22;71609;42.630;23.380;2023-08-31T05:17:31;28.90;43.70
80701;DHT22;71609;42.630;23.380;2023-08-31T05:19:57;28.90;43.40
80701;DHT22;71609;42.630;23.380;2023-08-31T05:22:23;29.00;43.40
80701;DHT22;71609;42.630;23.380;2023-08-31T05:24:49;29.10;43.20
80701;DHT22;71609;42.630;23.380;2023-08-31T05:27:14;29.10;43.00
80701;DHT22;71609;42.630;23.380;2023-08-31T05:29:40;29.30;43.10
80701;DHT22;71609;42.630;23.380;2023-08-31T05:32:07;29.30;42.90
80701;DHT22;71609;42.630;23.380;2023-08-31T05:34:33;29.50;42.60
80701;DHT22;71609;42.630;23.380;2023-08-31T05:37:03;29.50;42.40
80701;DHT22;71609;42.630;23.380;2023-08-31T05:39:30;29.60;42.20
80701;DHT22;71609;42.630;23.380;2023-08-31T05:41:56;29.70;42.20
80701;DHT22;71609;42.630;23.380;2023-08-31T05:44:22;29.80;42.00
80701;DHT22;71609;42.630;23.380;2023-08-31T05:46:48;29.90;41.80
80701;DHT22;71609;42.630;23.380;2023-08-31T05:49:14;30.00;41.70
80701;DHT22;71609;42.630;23.380;2023-08-31T05:51:39;30.10;41.60
80701;DHT22;71609;42.630;23.380;2023-08-31T05:54:05;30.20;41.50
80701;DHT22;71609;42.630;23.380;2023-08-31T05:56:35;30.30;41.00
80701;DHT22;71609;42.630;23.380;2023-08-31T05:59:01;30.30;40.80
80701;DHT22;71609;42.630;23.380;2023-08-31T06:01:27;30.40;40.70
80701;DHT22;71609;42.630;23.380;2023-08-31T06:03:53;30.50;40.40
80701;DHT22;71609;42.630;23.380;2023-08-31T06:06:18;30.50;40.00
80701;DHT22;71609;42.630;23.380;2023-08-31T06:08:44;30.60;39.90
80701;DHT22;71609;42.630;23.380;2023-08-31T06:11:10;30.70;39.90
80701;DHT22;71609;42.630;23.380;2023-08-31T06:13:35;30.80;39.70
80701;DHT22;71609;42.630;23.380;2023-08-31T06:16:01;30.80;39.30
80701;DHT22;71609;42.630;23.380;2023-08-31T06:18:27;30.90;39.30
80701;DHT22;71609;42.630;23.380;2023-08-31T06:20:52;31.00;39.10
80701;DHT22;71609;42.630;23.380;2023-08-31T06:23:18;31.20;38.90
80701;DHT22;71609;42.630;23.380;2023-08-31T06:25:43;31.30;38.70
80701;DHT22;71609;42.630;23.380;2023-08-31T06:28:11;31.40;38.50
80701;DHT22;71609;42.630;23.380;2023-08-31T06:30:38;31.50;38.30
80701;DHT22;71609;42.630;23.380;2023-08-31T06:33:04;31.50;38.30
80701;DHT22;71609;42.630;23.380;2023-08-31T06:35:30;31.60;38.10
80701;DHT22;71609;42.630;23.380;2023-08-31T06:37:59;31.70;37.90
80701;DHT22;71609;42.630;23.380;2023-08-31T06:40:24;31.70;37.80
80701;DHT22;71609;42.630;23.380;2023-08-31T06:42:50;31.70;37.60
80701;DHT22;71609;42.630;23.380;2023-08-31T06:45:16;31.80;37.50
80701;DHT22;71609;42.630;23.380;2023-08-31T06:47:41;31.90;37.60
80701;DHT22;71609;42.630;23.380;2023-08-31T06:50:07;31.90;37.40
80701;DHT22;71609;42.630;23.380;2023-08-31T06:52:33;32.00;37.30
80701;DHT22;71609;42.630;23.380;2023-08-31T06:54:59;32.10;37.10
80701;DHT22;71609;42.630;23.380;2023-08-31T06:57:26;32.10;37.10
80701;DHT22;71609;42.630;23.380;2023-08-31T06:59:52;32.20;37.10
80701;DHT22;71609;42.630;23.380;2023-08-31T07:02:18;32.30;37.00
80701;DHT22;71609;42.630;23.380;2023-08-31T07:04:45;32.30;36.60
80701;DHT22;71609;42.630;23.380;2023-08-31T07:07:11;32.40;36.50
80701;DHT22;71609;42.630;23.380;2023-08-31T07:09:38;32.50;36.70
80701;DHT22;71609;42.630;23.380;2023-08-31T07:12:04;32.40;36.60
80701;DHT22;71609;42.630;23.380;2023-08-31T07:14:30;32.60;36.50
80701;DHT22;71609;42.630;23.380;2023-08-31T07:16:55;32.60;36.20
80701;DHT22;71609;42.630;23.380;2023-08-31T07:19:21;32.60;35.80
80701;DHT22;71609;42.630;23.380;2023-08-31T07:21:47;32.70;36.10
80701;DHT22;71609;42.630;23.380;2023-08-31T07:24:13;32.80;36.10
80701;DHT22;71609;42.630;23.380;2023-08-31T07:26:39;32.80;36.30
80701;DHT22;71609;42.630;23.380;2023-08-31T07:29:04;32.80;35.90
80701;DHT22;71609;42.630;23.380;2023-08-31T07:31:31;32.90;35.60
80701;DHT22;71609;42.630;23.380;2023-08-31T07:33:57;32.90;35.80
80701;DHT22;71609;42.630;23.380;2023-08-31T07:36:24;33.00;35.60
80701;DHT22;71609;42.630;23.380;2023-08-31T07:38:49;33.00;35.70
80701;DHT22;71609;42.630;23.380;2023-08-31T07:41:15;33.00;35.80
80701;DHT22;71609;42.630;23.380;2023-08-31T07:43:41;33.00;35.60
80701;DHT22;71609;42.630;23.380;2023-08-31T07:46:06;33.10;35.30
80701;DHT22;71609;42.630;23.380;2023-08-31T07:48:32;33.10;35.30
80701;DHT22;71609;42.630;23.380;2023-08-31T07:50:57;33.20;35.30
80701;DHT22;71609;42.630;23.380;2023-08-31T07:53:23;33.20;35.10
80701;DHT22;71609;42.630;23.380;2023-08-31T07:55:53;33.20;35.50
80701;DHT22;71609;42.630;23.380;2023-08-31T07:58:20;33.20;35.40
80701;DHT22;71609;42.630;23.380;2023-08-31T08:00:46;33.30;35.40
80701;DHT22;71609;42.630;23.380;2023-08-31T08:03:12;33.30;35.10
80701;DHT22;71609;42.630;23.380;2023-08-31T08:05:39;33.30;34.90
80701;DHT22;71609;42.630;23.380;2023-08-31T08:08:04;33.30;35.10
80701;DHT22;71609;42.630;23.380;2023-08-31T08:10:30;33.40;35.10
80701;DHT22;71609;42.630;23.380;2023-08-31T08:12:56;33.40;35.10
80701;DHT22;71609;42.630;23.380;2023-08-31T08:15:21;33.40;35.20
80701;DHT22;71609;42.630;23.380;2023-08-31T08:17:47;33.40;35.10
80701;DHT22;71609;42.630;23.380;2023-08-31T08:20:13;33.40;36.30
80701;DHT22;71609;42.630;23.380;2023-08-31T08:22:39;33.50;35.30
80701;DHT22;71609;42.630;23.380;2023-08-31T08:25:05;33.50;35.20
80701;DHT22;71609;42.630;23.380;2023-08-31T08:27:31;33.50;35.00
80701;DHT22;71609;42.630;23.380;2023-08-31T08:29:59;33.50;35.10
80701;DHT22;71609;42.630;23.380;2023-08-31T08:32:25;33.50;35.10
80701;DHT22;71609;42.630;23.380;2023-08-31T08:34:51;33.60;35.10
80701;DHT22;71609;42.630;23.380;2023-08-31T08:37:17;33.60;34.80
80701;DHT22;71609;42.630;23.380;2023-08-31T08:39:43;33.60;34.80
80701;DHT22;71609;42.630;23.380;2023-08-31T08:42:10;33.60;34.80
80701;DHT22;71609;42.630;23.380;2023-08-31T08:44:36;33.60;34.80
80701;DHT22;71609;42.630;23.380;2023-08-31T08:47:03;33.70;35.00
80701;DHT22;71609;42.630;23.380;2023-08-31T08:49:31;33.70;34.80
80701;DHT22;71609;42.630;23.380;2023-08-31T08:51:58;33.70;34.70
80701;DHT22;71609;42.630;23.380;2023-08-31T08:54:24;33.70;34.50
80701;DHT22;71609;42.630;23.380;2023-08-31T08:56:50;33.70;34.70
80701;DHT22;71609;42.630;23.380;2023-08-31T08:59:16;33.70;34.70
80701;DHT22;71609;42.630;23.380;2023-08-31T09:01:42;33.70;34.70
80701;DHT22;71609;42.630;23.380;2023-08-31T09:04:09;33.70;34.40
80701;DHT22;71609;42.630;23.380;2023-08-31T09:06:35;33.70;35.30
80701;DHT22;71609;42.630;23.380;2023-08-31T09:09:01;33.70;34.40
80701;DHT22;71609;42.630;23.380;2023-08-31T09:11:27;33.70;34.40
80701;DHT22;71609;42.630;23.380;2023-08-31T09:13:53;33.80;34.40
80701;DHT22;71609;42.630;23.380;2023-08-31T09:16:29;33.80;34.40
80701;DHT22;71609;42.630;23.380;2023-08-31T09:18:56;33.80;35.60
80701;DHT22;71609;42.630;23.380;2023-08-31T09:21:22;33.80;34.50
80701;DHT22;71609;42.630;23.380;2023-08-31T09:23:59;33.80;34.50
80701;DHT22;71609;42.630;23.380;2023-08-31T09:26:24;33.80;34.40
80701;DHT22;71609;42.630;23.380;2023-08-31T09:28:50;33.90;34.40
80701;DHT22;71609;42.630;23.380;2023-08-31T09:31:16;33.90;34.40
80701;DHT22;71609;42.630;23.380;2023-08-31T09:33:51;33.90;34.40
80701;DHT22;71609;42.630;23.380;2023-08-31T09:36:18;33.90;34.40
80701;DHT22;71609;42.630;23.380;2023-08-31T09:38:45;33.90;33.90
80701;DHT22;71609;42.630;23.380;2023-08-31T09:41:11;33.90;33.90
80701;DHT22;71609;42.630;23.380;2023-08-31T09:43:37;33.80;33.80
80701;DHT22;71609;42.630;23.380;2023-08-31T09:46:04;33.90;34.20
80701;DHT22;71609;42.630;23.380;2023-08-31T09:48:30;33.90;33.90
80701;DHT22;71609;42.630;23.380;2023-08-31T09:50:57;33.80;34.00
80701;DHT22;71609;42.630;23.380;2023-08-31T09:53:26;33.70;34.20
80701;DHT22;71609;42.630;23.380;2023-08-31T09:55:54;33.70;34.60
80701;DHT22;71609;42.630;23.380;2023-08-31T09:58:21;33.60;34.60
80701;DHT22;71609;42.630;23.380;2023-08-31T10:00:49;33.60;34.60
80701;DHT22;71609;42.630;23.380;2023-08-31T10:03:15;33.60;34.40
80701;DHT22;71609;42.630;23.380;2023-08-31T10:05:43;33.50;34.20
80701;DHT22;71609;42.630;23.380;2023-08-31T10:08:09;33.30;34.50
80701;DHT22;71609;42.630;23.380;2023-08-31T10:10:35;33.20;34.80
80701;DHT22;71609;42.630;23.380;2023-08-31T10:13:03;33.20;35.00
80701;DHT22;71609;42.630;23.380;2023-08-31T10:15:32;33.00;35.20
80701;DHT22;71609;42.630;23.380;2023-08-31T10:18:04;33.00;35.60
80701;DHT22;71609;42.630;23.380;2023-08-31T10:20:32;32.90;35.90
80701;DHT22;71609;42.630;23.380;2023-08-31T10:22:59;32.80;36.10
80701;DHT22;71609;42.630;23.380;2023-08-31T10:25:25;32.70;36.20
80701;DHT22;71609;42.630;23.380;2023-08-31T10:27:52;32.60;36.20
80701;DHT22;71609;42.630;23.380;2023-08-31T10:30:27;32.60;36.30
80701;DHT22;71609;42.630;23.380;2023-08-31T10:36:01;32.40;36.70
80701;DHT22;71609;42.630;23.380;2023-08-31T10:38:31;32.30;36.90
80701;DHT22;71609;42.630;23.380;2023-08-31T10:43:57;32.10;37.00
80701;DHT22;71609;42.630;23.380;2023-08-31T10:46:36;32.10;37.30
80701;DHT22;71609;42.630;23.380;2023-08-31T10:51:36;31.90;38.60
80701;DHT22;71609;42.630;23.380;2023-08-31T10:54:10;31.90;37.70
80701;DHT22;71609;42.630;23.380;2023-08-31T10:59:22;31.70;38.00
80701;DHT22;71609;42.630;23.380;2023-08-31T11:02:00;31.70;38.10
80701;DHT22;71609;42.630;23.380;2023-08-31T11:04:30;31.70;38.00
80701;DHT22;71609;42.630;23.380;2023-08-31T11:07:18;31.60;37.90
80701;DHT22;71609;42.630;23.380;2023-08-31T11:09:46;31.60;38.10
80701;DHT22;71609;42.630;23.380;2023-08-31T11:12:12;31.60;38.20
80701;DHT22;71609;42.630;23.380;2023-08-31T11:14:38;31.50;38.30
80701;DHT22;71609;42.630;23.380;2023-08-31T11:17:04;31.50;38.40
80701;DHT22;71609;42.630;23.380;2023-08-31T11:19:31;31.40;38.30
80701;DHT22;71609;42.630;23.380;2023-08-31T11:21:57;31.40;38.30
80701;DHT22;71609;42.630;23.380;2023-08-31T11:24:24;31.40;38.40
80701;DHT22;71609;42.630;23.380;2023-08-31T11:26:53;31.30;38.40
80701;DHT22;71609;42.630;23.380;2023-08-31T11:29:19;31.30;38.70
80701;DHT22;71609;42.630;23.380;2023-08-31T11:31:45;31.30;38.60
80701;DHT22;71609;42.630;23.380;2023-08-31T11:34:13;31.20;38.60
80701;DHT22;71609;42.630;23.380;2023-08-31T11:36:43;31.20;38.70
80701;DHT22;71609;42.630;23.380;2023-08-31T11:39:09;31.20;38.80
80701;DHT22;71609;42.630;23.380;2023-08-31T11:41:36;31.20;38.90
80701;DHT22;71609;42.630;23.380;2023-08-31T11:44:07;31.10;38.90
80701;DHT22;71609;42.630;23.380;2023-08-31T11:46:33;31.10;39.00
80701;DHT22;71609;42.630;23.380;2023-08-31T11:49:02;31.10;39.00
80701;DHT22;71609;42.630;23.380;2023-08-31T11:51:30;31.10;39.00
80701;DHT22;71609;42.630;23.380;2023-08-31T11:53:57;31.10;39.10
80701;DHT22;71609;42.630;23.380;2023-08-31T11:56:25;31.10;39.20
80701;DHT22;71609;42.630;23.380;2023-08-31T11:58:51;31.10;39.20
80701;DHT22;71609;42.630;23.380;2023-08-31T12:01:21;31.10;38.90
80701;DHT22;71609;42.630;23.380;2023-08-31T12:03:47;31.00;38.80
80701;DHT22;71609;42.630;23.380;2023-08-31T12:06:19;31.00;38.80
80701;DHT22;71609;42.630;23.380;2023-08-31T12:08:44;31.00;39.00
80701;DHT22;71609;42.630;23.380;2023-08-31T12:11:11;31.00;39.10
80701;DHT22;71609;42.630;23.380;2023-08-31T12:13:37;30.90;39.00
80701;DHT22;71609;42.630;23.380;2023-08-31T12:16:03;30.90;40.50
80701;DHT22;71609;42.630;23.380;2023-08-31T12:18:30;30.90;39.60
80701;DHT22;71609;42.630;23.380;2023-08-31T12:20:58;30.90;39.50
80701;DHT22;71609;42.630;23.380;2023-08-31T12:23:24;30.90;39.30
80701;DHT22;71609;42.630;23.380;2023-08-31T12:25:52;30.90;39.40
80701;DHT22;71609;42.630;23.380;2023-08-31T12:28:19;30.90;39.50
80701;DHT22;71609;42.630;23.380;2023-08-31T12:30:50;30.90;39.50
80701;DHT22;71609;42.630;23.380;2023-08-31T12:33:19;30.90;39.30
80701;DHT22;71609;42.630;23.380;2023-08-31T12:35:45;30.90;39.30
80701;DHT22;71609;42.630;23.380;2023-08-31T12:38:11;30.90;39.40
80701;DHT22;71609;42.630;23.380;2023-08-31T12:40:37;30.80;39.20
80701;DHT22;71609;42.630;23.380;2023-08-31T12:43:04;30.80;39.20
80701;DHT22;71609;42.630;23.380;2023-08-31T12:45:30;30.80;40.20
80701;DHT22;71609;42.630;23.380;2023-08-31T12:47:56;30.80;39.10
80701;DHT22;71609;42.630;23.380;2023-08-31T12:50:22;30.80;39.20
80701;DHT22;71609;42.630;23.380;2023-08-31T12:52:48;30.80;39.10
80701;DHT22;71609;42.630;23.380;2023-08-31T12:55:14;30.80;39.20
80701;DHT22;71609;42.630;23.380;2023-08-31T12:57:41;30.80;39.20
80701;DHT22;71609;42.630;23.380;2023-08-31T13:00:08;30.80;39.40
80701;DHT22;71609;42.630;23.380;2023-08-31T13:02:40;30.70;39.50
80701;DHT22;71609;42.630;23.380;2023-08-31T13:05:07;30.70;39.50
80701;DHT22;71609;42.630;23.380;2023-08-31T13:07:36;30.70;39.50
80701;DHT22;71609;42.630;23.380;2023-08-31T13:10:02;30.70;39.50
80701;DHT22;71609;42.630;23.380;2023-08-31T13:12:30;30.70;39.70
80701;DHT22;71609;42.630;23.380;2023-08-31T13:14:56;30.70;39.90
80701;DHT22;71609;42.630;23.380;2023-08-31T13:17:22;30.60;39.90
80701;DHT22;71609;42.630;23.380;2023-08-31T13:19:52;30.60;39.90
80701;DHT22;71609;42.630;23.380;2023-08-31T13:22:18;30.60;39.90
80701;DHT22;71609;42.630;23.380;2023-08-31T13:24:45;30.50;39.90
80701;DHT22;71609;42.630;23.380;2023-08-31T13:27:11;30.60;40.10
80701;DHT22;71609;42.630;23.380;2023-08-31T13:29:36;30.50;40.10
80701;DHT22;71609;42.630;23.380;2023-08-31T13:32:02;30.50;40.10
80701;DHT22;71609;42.630;23.380;2023-08-31T13:34:28;30.50;40.10
80701;DHT22;71609;42.630;23.380;2023-08-31T13:36:54;30.50;40.20
80701;DHT22;71609;42.630;23.380;2023-08-31T13:39:21;30.50;40.40
80701;DHT22;71609;42.630;23.380;2023-08-31T13:41:53;30.50;40.70
80701;DHT22;71609;42.630;23.380;2023-08-31T13:44:19;30.40;40.50
80701;DHT22;71609;42.630;23.380;2023-08-31T13:46:48;30.40;40.70
80701;DHT22;71609;42.630;23.380;2023-08-31T13:49:14;30.40;40.40
80701;DHT22;71609;42.630;23.380;2023-08-31T13:51:41;30.40;40.60
80701;DHT22;71609;42.630;23.380;2023-08-31T13:54:07;30.40;40.70
80701;DHT22;71609;42.630;23.380;2023-08-31T13:56:34;30.40;40.80
80701;DHT22;71609;42.630;23.380;2023-08-31T13:58:59;30.30;40.70
80701;DHT22;71609;42.630;23.380;2023-08-31T14:01:25;30.30;41.00
80701;DHT22;71609;42.630;23.380;2023-08-31T14:03:52;30.30;41.10
80701;DHT22;71609;42.630;23.380;2023-08-31T14:06:17;30.30;41.00
80701;DHT22;71609;42.630;23.380;2023-08-31T14:08:43;30.30;41.00
80701;DHT22;71609;42.630;23.380;2023-08-31T14:11:09;30.30;40.90
80701;DHT22;71609;42.630;23.380;2023-08-31T14:13:34;30.30;40.90
80701;DHT22;71609;42.630;23.380;2023-08-31T14:16:00;30.30;41.20
80701;DHT22;71609;42.630;23.380;2023-08-31T14:18:26;30.20;41.10
80701;DHT22;71609;42.630;23.380;2023-08-31T14:20:54;30.20;41.00
80701;DHT22;71609;42.630;23.380;2023-08-31T14:23:20;30.20;41.10
80701;DHT22;71609;42.630;23.380;2023-08-31T14:25:46;30.20;41.10
80701;DHT22;71609;42.630;23.380;2023-08-31T14:28:11;30.20;41.30
80701;DHT22;71609;42.630;23.380;2023-08-31T14:30:37;30.10;41.20
80701;DHT22;71609;42.630;23.380;2023-08-31T14:33:04;30.10;41.40
80701;DHT22;71609;42.630;23.380;2023-08-31T14:35:29;30.10;41.50
80701;DHT22;71609;42.630;23.380;2023-08-31T14:37:56;30.10;41.50
80701;DHT22;71609;42.630;23.380;2023-08-31T14:40:22;30.10;41.50
80701;DHT22;71609;42.630;23.380;2023-08-31T14:42:47;30.10;41.60
80701;DHT22;71609;42.630;23.380;2023-08-31T14:45:13;30.10;41.60
80701;DHT22;71609;42.630;23.380;2023-08-31T14:47:39;30.10;41.70
80701;DHT22;71609;42.630;23.380;2023-08-31T14:50:04;30.00;41.70
80701;DHT22;71609;42.630;23.380;2023-08-31T14:52:30;30.00;41.60
80701;DHT22;71609;42.630;23.380;2023-08-31T14:54:56;30.00;41.70
80701;DHT22;71609;42.630;23.380;2023-08-31T14:57:22;30.00;41.90
80701;DHT22;71609;42.630;23.380;2023-08-31T14:59:48;29.90;43.00
80701;DHT22;71609;42.630;23.380;2023-08-31T15:02:15;30.00;42.00
80701;DHT22;71609;42.630;23.380;2023-08-31T15:04:41;30.00;42.00
80701;DHT22;71609;42.630;23.380;2023-08-31T15:07:07;29.90;41.90
80701;DHT22;71609;42.630;23.380;2023-08-31T15:09:33;29.90;41.90
80701;DHT22;71609;42.630;23.380;2023-08-31T15:11:59;29.90;41.90
80701;DHT22;71609;42.630;23.380;2023-08-31T15:14:24;29.90;42.00
80701;DHT22;71609;42.630;23.380;2023-08-31T15:16:51;29.90;42.00
80701;DHT22;71609;42.630;23.380;2023-08-31T15:19:16;29.90;42.00
80701;DHT22;71609;42.630;23.380;2023-08-31T15:21:42;29.90;42.00
80701;DHT22;71609;42.630;23.380;2023-08-31T15:24:08;29.80;42.10
80701;DHT22;71609;42.630;23.380;2023-08-31T15:26:33;29.80;42.00
80701;DHT22;71609;42.630;23.380;2023-08-31T15:28:59;29.80;42.00
80701;DHT22;71609;42.630;23.380;2023-08-31T15:31:25;29.80;42.20
80701;DHT22;71609;42.630;23.380;2023-08-31T15:33:52;29.80;42.10